Time;durP1;ratioP1;P1;durP2;ratioP2;P2;SDS_P1;SDS_P2;PMS_P1;PMS_P2;Temp;Humidity;BMP_temperature;BMP_pressure;BME280_temperature;BME280_humidity;BME280_pressure;Samples;Min_cycle;Max_cycle;Signal;HPM_P1;HPM_P2
2023/07/03 04:17:50;;;;;;;8.70;6.10;;;;;;;17.95;91.84;99965.94;5563347;32;192745;-85
2023/07/03 04:20:54;;;;;;;7.25;5.65;;;;;;;17.96;90.36;99970.34;5549231;32;33501;-86
2023/07/03 04:23:57;;;;;;;8.57;5.62;;;;;;;18.03;88.18;99973.31;5547610;32;34011;-86
2023/07/03 04:27:00;;;;;;;9.25;5.60;;;;;;;18.14;88.10;99975.09;5547783;32;34450;-85
2023/07/03 04:30:04;;;;;;;8.93;5.75;;;;;;;18.25;87.21;99976.84;5547832;32;33982;-85
2023/07/03 04:33:07;;;;;;;7.62;5.43;;;;;;;18.40;88.64;99969.25;5547287;32;33915;-85
2023/07/03 04:36:11;;;;;;;9.93;5.65;;;;;;;18.67;87.31;99979.34;5547522;32;34787;-85
2023/07/03 04:39:15;;;;;;;7.30;5.50;;;;;;;18.90;85.78;99987.13;5547523;32;34178;-85
2023/07/03 04:42:18;;;;;;;8.07;5.40;;;;;;;19.19;82.75;99994.41;5546952;32;34612;-85
2023/07/03 04:45:21;;;;;;;40.75;6.93;;;;;;;19.31;82.25;99994.25;5547474;32;34520;-86
2023/07/03 04:48:24;;;;;;;9.27;5.87;;;;;;;19.37;82.35;99999.88;5547130;32;33631;-86
2023/07/03 04:51:30;;;;;;;9.27;5.60;;;;;;;19.39;82.69;99994.37;5546976;32;34712;-86
2023/07/03 04:54:35;;;;;;;9.38;5.95;;;;;;;19.39;81.47;99989.84;5546945;32;33820;-85
2023/07/03 04:57:38;;;;;;;7.35;5.70;;;;;;;19.44;81.60;99997.50;5547180;32;34075;-86
2023/07/03 05:00:41;;;;;;;9.00;5.25;;;;;;;19.59;80.21;100008.66;5547448;32;34042;-86
2023/07/03 05:03:44;;;;;;;8.73;5.57;;;;;;;19.69;78.79;100002.38;5548347;32;33921;-86
2023/07/03 05:06:47;;;;;;;7.87;5.57;;;;;;;19.78;79.14;100010.44;5548155;32;34410;-88
2023/07/03 05:09:50;;;;;;;6.95;5.15;;;;;;;19.87;78.36;100005.19;5547406;32;34420;-89
2023/07/03 05:12:52;;;;;;;7.55;5.07;;;;;;;20.19;77.48;100012.03;5547184;32;33875;-89
2023/07/03 05:15:55;;;;;;;15.32;5.70;;;;;;;20.55;77.04;100017.53;5548082;32;33661;-89
2023/07/03 05:18:58;;;;;;;7.30;5.22;;;;;;;20.71;74.13;100018.72;5548119;32;34287;-89
2023/07/03 05:22:01;;;;;;;7.75;5.12;;;;;;;20.96;71.34;100025.25;5546906;32;33968;-86
2023/07/03 05:25:04;;;;;;;6.82;5.00;;;;;;;22.38;64.33;100019.00;5547405;32;33898;-86
2023/07/03 05:28:07;;;;;;;9.35;4.68;;;;;;;26.44;50.92;100017.66;5538267;32;34645;-86
2023/07/03 05:31:09;;;;;;;7.95;5.03;;;;;;;29.16;43.33;100033.91;5532368;32;33493;-87
2023/07/03 05:34:12;;;;;;;7.18;5.05;;;;;;;32.53;35.63;100036.81;5535130;32;33716;-86
2023/07/03 05:37:15;;;;;;;9.00;4.85;;;;;;;32.58;33.22;100042.44;5539876;32;33590;-87
2023/07/03 05:40:18;;;;;;;9.13;4.80;;;;;;;35.26;30.71;100050.81;5531153;32;33566;-87
2023/07/03 05:43:21;;;;;;;6.53;4.70;;;;;;;36.52;27.52;100060.66;5530123;32;33799;-87
2023/07/03 05:46:24;;;;;;;8.18;4.80;;;;;;;37.59;26.16;100066.75;5529516;32;34291;-87
2023/07/03 05:49:26;;;;;;;5.25;4.20;;;;;;;37.99;25.38;100072.81;5529633;32;34241;-85
2023/07/03 05:52:29;;;;;;;7.60;4.93;;;;;;;39.19;23.87;100074.13;5529294;32;33455;-85
2023/07/03 05:55:32;;;;;;;7.72;4.47;;;;;;;38.85;23.08;100074.56;5529063;32;33761;-84
2023/07/03 05:58:35;;;;;;;4.65;4.25;;;;;;;38.17;25.13;100073.50;5528900;32;34607;-85
2023/07/03 06:01:37;;;;;;;6.72;4.47;;;;;;;37.96;25.31;100078.88;5522210;32;33507;-85
2023/07/03 06:04:41;;;;;;;7.18;4.70;;;;;;;37.19;24.87;100079.09;5510284;32;33539;-85
2023/07/03 06:07:43;;;;;;;6.78;4.65;;;;;;;35.90;26.30;100072.78;5514360;32;33647;-85
2023/07/03 06:10:46;;;;;;;5.10;4.60;;;;;;;36.77;26.45;100075.91;5530880;32;33721;-84
2023/07/03 06:13:49;;;;;;;7.28;4.57;;;;;;;37.37;25.73;100077.03;5531875;32;33660;-84
2023/07/03 06:16:52;;;;;;;5.15;4.30;;;;;;;37.97;24.88;100093.56;5526501;32;34261;-84
2023/07/03 06:19:55;;;;;;;7.87;4.32;;;;;;;37.62;24.85;100091.09;5526256;32;32703;-84
2023/07/03 06:22:58;;;;;;;7.78;4.43;;;;;;;38.14;24.24;100094.25;5530183;32;33796;-84
2023/07/03 06:26:00;;;;;;;6.45;4.53;;;;;;;39.62;23.15;100092.44;5530379;32;33450;-84
2023/07/03 06:29:03;;;;;;;6.75;3.83;;;;;;;40.85;21.52;100094.34;5529988;32;33744;-85
2023/07/03 06:32:08;;;;;;;7.45;4.40;;;;;;;40.80;21.74;100098.78;5529749;32;33725;-84
2023/07/03 06:35:11;;;;;;;4.57;4.10;;;;;;;39.73;22.42;100094.13;5529585;32;33771;-84
2023/07/03 06:38:13;;;;;;;3.92;3.53;;;;;;;36.85;25.30;100093.09;5530092;32;33425;-85
2023/07/03 06:41:16;;;;;;;7.12;4.40;;;;;;;34.46;27.87;100087.25;5512272;32;34084;-84
2023/07/03 06:44:20;;;;;;;5.30;4.22;;;;;;;32.69;30.61;100078.44;5516592;32;33750;-84
2023/07/03 06:47:23;;;;;;;4.50;4.07;;;;;;;31.40;32.71;100076.06;5533101;32;32516;-83
2023/07/03 06:50:25;;;;;;;6.78;4.12;;;;;;;30.34;34.18;100066.22;5530030;32;33563;-83
2023/07/03 06:53:28;;;;;;;5.78;3.87;;;;;;;29.76;35.40;100067.78;5516442;32;33845;-84
2023/07/03 06:56:31;;;;;;;7.15;4.20;;;;;;;28.78;37.49;100063.41;5513432;32;34252;-83
2023/07/03 06:59:34;;;;;;;5.93;4.03;;;;;;;29.49;35.50;100065.91;5523152;32;33324;-84
2023/07/03 07:02:38;;;;;;;6.15;3.75;;;;;;;28.89;37.84;100066.59;5529376;32;34616;-84
2023/07/03 07:05:42;;;;;;;7.05;3.95;;;;;;;28.94;35.56;100072.28;5534448;32;34381;-84
2023/07/03 07:08:45;;;;;;;5.10;4.03;;;;;;;29.02;38.51;100069.34;5530206;32;34135;-84
2023/07/03 07:11:48;;;;;;;6.30;3.50;;;;;;;29.27;37.41;100070.69;5533877;32;34121;-84
2023/07/03 07:14:50;;;;;;;3.92;3.40;;;;;;;29.16;32.89;100077.59;5528048;32;34914;-84
2023/07/03 07:17:53;;;;;;;5.65;3.78;;;;;;;29.38;34.35;100074.66;5516610;32;35147;-84
2023/07/03 07:20:56;;;;;;;6.03;4.35;;;;;;;28.94;35.37;100083.19;5535751;32;33982;-84
2023/07/03 07:24:02;;;;;;;4.90;3.83;;;;;;;28.97;34.22;100076.50;5523431;32;33915;-84
2023/07/03 07:27:05;;;;;;;6.80;4.18;;;;;;;29.11;34.47;100075.47;5543422;32;34172;-84
2023/07/03 07:30:09;;;;;;;4.65;3.65;;;;;;;29.12;35.59;100076.31;5532462;32;33762;-84
2023/07/03 07:33:11;;;;;;;11.23;4.20;;;;;;;29.46;32.51;100078.03;5527142;32;33776;-84
2023/07/03 07:36:16;;;;;;;6.15;3.70;;;;;;;29.81;32.44;100077.03;5529610;32;34033;-84
2023/07/03 07:39:20;;;;;;;6.28;4.00;;;;;;;29.77;32.22;100072.19;5535010;32;35235;-87
2023/07/03 07:42:22;;;;;;;7.15;4.18;;;;;;;30.33;31.29;100070.87;5531122;32;33733;-88
2023/07/03 07:45:25;;;;;;;6.30;4.70;;;;;;;30.29;30.46;100076.97;5527221;32;33803;-87
2023/07/03 07:48:28;;;;;;;5.37;3.87;;;;;;;30.51;27.44;100072.06;5526103;32;33534;-85
2023/07/03 07:51:35;;;;;;;7.50;5.18;;;;;;;30.93;28.87;100074.44;5529835;32;33815;-84
2023/07/03 07:54:38;;;;;;;6.20;4.55;;;;;;;30.89;27.89;100074.03;5530831;32;34597;-84
2023/07/03 07:57:40;;;;;;;5.93;4.65;;;;;;;30.40;28.03;100081.78;5523075;32;34101;-83
2023/07/03 08:00:44;;;;;;;9.90;5.20;;;;;;;30.69;28.46;100081.50;5527726;32;35385;-83
2023/07/03 08:03:47;;;;;;;10.55;5.90;;;;;;;31.09;27.72;100075.81;5523229;32;34167;-83
2023/07/03 08:06:50;;;;;;;10.57;5.80;;;;;;;31.78;26.83;100091.56;5534700;32;33771;-83
2023/07/03 08:09:53;;;;;;;8.00;6.03;;;;;;;31.71;28.02;100085.31;5537905;32;34712;-83
2023/07/03 08:12:55;;;;;;;7.97;6.05;;;;;;;31.98;26.65;100090.59;5522243;32;33969;-83
2023/07/03 08:15:59;;;;;;;12.32;6.47;;;;;;;32.37;27.26;100091.22;5534978;32;34141;-83
2023/07/03 08:19:02;;;;;;;12.07;6.50;;;;;;;32.42;27.04;100090.56;5533452;32;34118;-83
2023/07/03 08:22:05;;;;;;;10.70;7.12;;;;;;;32.52;26.64;100090.03;5531792;32;33741;-83
2023/07/03 08:25:09;;;;;;;11.38;7.15;;;;;;;32.16;25.10;100089.75;5535692;32;33564;-83
2023/07/03 08:28:12;;;;;;;12.10;7.37;;;;;;;33.03;25.58;100089.84;5528174;32;33707;-83
2023/07/03 08:31:15;;;;;;;15.48;6.47;;;;;;;32.89;25.93;100094.66;5530750;32;33955;-83
2023/07/03 08:34:18;;;;;;;12.43;6.97;;;;;;;32.42;26.23;100093.31;5526062;32;32700;-83
2023/07/03 08:37:21;;;;;;;10.77;6.95;;;;;;;32.15;26.86;100093.56;5517130;32;33958;-83
2023/07/03 08:40:27;;;;;;;12.73;7.10;;;;;;;33.21;26.14;100097.19;5529631;32;33802;-84
2023/07/03 08:43:36;;;;;;;11.95;6.70;;;;;;;33.38;24.82;100091.03;5534816;32;34340;-84
2023/07/03 08:46:40;;;;;;;12.73;7.47;;;;;;;33.38;24.74;100100.09;5532360;32;35201;-84
2023/07/03 08:49:45;;;;;;;11.75;7.75;;;;;;;32.94;24.60;100098.34;5513458;32;33783;-84
2023/07/03 08:52:56;;;;;;;15.30;7.00;;;;;;;33.55;25.76;100102.19;5526857;32;33954;-83
2023/07/03 08:56:17;;;;;;;11.35;7.12;;;;;;;34.19;24.67;100106.19;5532981;32;33886;-84
2023/07/03 08:59:20;;;;;;;9.88;7.35;;;;;;;33.78;24.74;100101.37;5530748;32;34623;-83
2023/07/03 09:02:37;;;;;;;11.93;7.55;;;;;;;34.07;23.14;100101.53;5529901;32;33836;-83
2023/07/03 09:06:07;;;;;;;12.73;7.50;;;;;;;34.71;23.51;100097.16;5533712;32;34121;-84
2023/07/03 09:09:35;;;;;;;9.73;7.37;;;;;;;33.63;24.78;100101.03;5533663;32;33864;-84
2023/07/03 09:12:53;;;;;;;11.32;7.85;;;;;;;34.47;23.59;100104.59;5531952;32;33458;-83
2023/07/03 09:16:06;;;;;;;15.38;9.15;;;;;;;33.72;23.17;100102.31;5533848;32;33498;-83
2023/07/03 09:19:20;;;;;;;13.27;9.10;;;;;;;34.87;21.96;100108.47;5513887;32;33644;-83
2023/07/03 09:22:44;;;;;;;12.82;9.35;;;;;;;33.82;23.21;100108.09;5538822;32;34300;-83
2023/07/03 09:26:07;;;;;;;13.05;8.93;;;;;;;34.40;22.94;100102.81;5535160;32;33798;-84
2023/07/03 09:29:11;;;;;;;10.98;8.82;;;;;;;33.38;22.90;100115.75;5540143;32;33725;-84
2023/07/03 09:32:23;;;;;;;10.85;8.52;;;;;;;34.46;23.27;100112.03;5534733;32;34429;-84
2023/07/03 09:35:36;;;;;;;14.35;9.32;;;;;;;35.20;21.79;100102.22;5527268;32;33584;-84
2023/07/03 09:38:39;;;;;;;13.55;8.93;;;;;;;35.75;20.64;100097.13;5514808;32;34693;-84
2023/07/03 09:41:42;;;;;;;10.70;9.25;;;;;;;36.28;20.07;100096.81;5531947;32;33719;-84
2023/07/03 09:44:45;;;;;;;12.73;8.95;;;;;;;35.97;21.25;100101.87;5518021;32;33838;-84
2023/07/03 09:47:52;;;;;;;12.18;9.05;;;;;;;35.39;21.49;100103.94;5516421;32;34295;-88
2023/07/03 09:50:57;;;;;;;13.55;8.85;;;;;;;36.10;21.11;100106.22;5514577;32;34606;-89
2023/07/03 09:54:21;;;;;;;12.40;8.30;;;;;;;35.92;21.63;100095.41;5512489;32;34081;-85
2023/07/03 09:57:27;;;;;;;12.98;9.18;;;;;;;36.41;20.60;100103.06;5536143;32;33802;-85
2023/07/03 10:00:30;;;;;;;11.20;8.43;;;;;;;35.86;20.96;100111.06;5533812;32;34491;-85
2023/07/03 10:03:35;;;;;;;11.57;8.60;;;;;;;36.47;20.32;100101.19;5534446;32;34415;-85
2023/07/03 10:06:41;;;;;;;14.75;9.20;;;;;;;36.37;20.21;100090.84;5533067;32;34802;-85
2023/07/03 10:09:46;;;;;;;10.77;8.48;;;;;;;36.20;20.76;100096.41;5521542;32;33801;-85
2023/07/03 10:12:59;;;;;;;12.27;8.98;;;;;;;34.93;22.00;100091.78;5529737;32;33862;-84
2023/07/03 10:16:04;;;;;;;11.65;8.52;;;;;;;35.43;22.06;100097.66;5534846;32;34534;-84
2023/07/03 10:19:09;;;;;;;11.95;9.27;;;;;;;35.78;21.27;100094.97;5543726;32;34605;-84
2023/07/03 10:22:15;;;;;;;12.43;8.95;;;;;;;34.85;22.39;100088.59;5538364;32;34242;-84
2023/07/03 10:25:26;;;;;;;12.85;9.43;;;;;;;35.04;21.97;100090.06;5519578;32;34129;-84
2023/07/03 10:28:51;;;;;;;15.82;10.23;;;;;;;35.02;21.80;100081.22;5524962;32;34688;-84
2023/07/03 10:32:08;;;;;;;11.82;9.23;;;;;;;34.19;24.03;100081.44;5533792;32;35097;-84
2023/07/03 10:35:29;;;;;;;12.90;9.02;;;;;;;32.43;25.30;100081.25;5545496;32;34798;-84
2023/07/03 10:38:35;;;;;;;14.60;9.82;;;;;;;35.44;22.68;100093.00;5527656;32;34723;-84
2023/07/03 10:41:45;;;;;;;11.90;9.63;;;;;;;36.85;20.60;100095.88;5538178;32;34630;-88
2023/07/03 10:44:52;;;;;;;11.80;8.75;;;;;;;36.00;21.14;100098.59;5538838;32;34371;-86
2023/07/03 10:48:22;;;;;;;15.30;9.35;;;;;;;35.67;22.65;100089.28;5529458;32;33699;-85
2023/07/03 10:51:35;;;;;;;12.60;9.32;;;;;;;34.51;23.32;100087.38;5532458;32;33535;-85
2023/07/03 10:54:45;;;;;;;12.07;9.00;;;;;;;33.84;23.38;100089.41;5537437;32;33926;-84
2023/07/03 10:58:18;;;;;;;13.00;9.05;;;;;;;35.00;22.08;100088.91;5532131;32;33763;-84
2023/07/03 11:01:56;;;;;;;13.35;8.48;;;;;;;34.52;22.69;100079.91;5526058;32;33705;-84
2023/07/03 11:05:48;;;;;;;13.90;9.02;;;;;;;34.07;23.52;100100.69;5501702;32;33924;-84
2023/07/03 11:09:03;;;;;;;14.82;8.85;;;;;;;33.38;23.49;100096.53;5530108;32;34487;-85
2023/07/03 11:12:16;;;;;;;11.65;9.00;;;;;;;35.47;21.49;100095.25;5533382;32;34347;-84
2023/07/03 11:16:01;;;;;;;11.10;8.18;;;;;;;33.44;24.05;100098.31;5534148;32;35034;-85
2023/07/03 11:19:10;;;;;;;15.27;8.57;;;;;;;33.59;23.91;100082.22;5525807;32;34310;-84
2023/07/03 11:22:41;;;;;;;12.65;8.75;;;;;;;33.40;25.03;100084.22;5530578;32;33827;-85
2023/07/03 11:25:57;;;;;;;11.48;9.18;;;;;;;33.76;24.43;100084.28;5514201;32;33717;-85
2023/07/03 11:29:05;;;;;;;10.95;8.05;;;;;;;33.54;25.60;100084.84;5527012;32;33503;-84
2023/07/03 11:32:09;;;;;;;11.00;7.82;;;;;;;33.94;24.34;100088.00;5533899;32;34337;-85
2023/07/03 11:35:14;;;;;;;10.55;8.00;;;;;;;34.16;24.04;100085.50;5539304;32;34134;-85
2023/07/03 11:38:20;;;;;;;11.63;8.70;;;;;;;33.73;24.12;100080.09;5532650;32;34276;-84
2023/07/03 11:41:48;;;;;;;12.40;7.90;;;;;;;31.55;27.77;100073.84;5529409;32;34616;-87
2023/07/03 11:44:58;;;;;;;11.40;7.82;;;;;;;30.58;29.66;100070.16;5533851;32;33668;-84
2023/07/03 11:48:01;;;;;;;12.88;7.97;;;;;;;31.16;29.36;100071.13;5523719;32;33708;-83
2023/07/03 11:51:12;;;;;;;11.70;8.25;;;;;;;30.19;30.11;100075.53;5536162;32;34765;-85
2023/07/03 11:54:17;;;;;;;12.43;8.10;;;;;;;30.77;29.95;100060.19;5523791;32;34185;-83
2023/07/03 11:57:28;;;;;;;11.85;7.78;;;;;;;30.33;31.53;100053.63;5528106;32;34645;-83
2023/07/03 12:00:32;;;;;;;10.77;7.60;;;;;;;30.87;29.92;100072.59;5519331;32;33670;-84
2023/07/03 12:03:53;;;;;;;11.93;7.95;;;;;;;29.59;31.18;100066.31;5535826;32;34009;-83
2023/07/03 12:06:56;;;;;;;12.43;7.60;;;;;;;29.30;32.67;100065.62;5542514;32;32570;-83
2023/07/03 12:10:17;;;;;;;10.63;7.25;;;;;;;30.10;32.05;100069.44;5538826;32;34571;-84
2023/07/03 12:13:41;;;;;;;11.63;8.27;;;;;;;30.67;29.87;100062.56;5532018;32;34423;-84
2023/07/03 12:16:47;;;;;;;10.38;8.20;;;;;;;30.16;32.25;100066.91;5525222;32;33624;-83
2023/07/03 12:20:07;;;;;;;11.05;8.10;;;;;;;30.23;31.66;100070.47;5531594;32;34195;-83
2023/07/03 12:23:10;;;;;;;13.77;8.77;;;;;;;30.94;29.67;100067.91;5526647;32;33910;-83
2023/07/03 12:26:16;;;;;;;11.85;7.65;;;;;;;30.81;30.39;100066.06;5530310;32;33919;-88
2023/07/03 12:29:19;;;;;;;10.80;8.20;;;;;;;31.19;30.45;100067.13;5533113;32;35011;-88
2023/07/03 12:32:33;;;;;;;13.15;8.52;;;;;;;31.12;30.15;100064.41;5525035;32;34016;-85
2023/07/03 12:35:43;;;;;;;12.00;8.23;;;;;;;29.81;31.60;100063.34;5522297;32;33979;-85
2023/07/03 12:38:45;;;;;;;13.70;8.67;;;;;;;30.15;31.92;100070.72;5530836;32;33962;-84
2023/07/03 12:41:48;;;;;;;12.88;9.10;;;;;;;29.69;33.86;100062.31;5527349;32;34671;-84
2023/07/03 12:44:52;;;;;;;12.32;9.23;;;;;;;30.24;30.94;100059.34;5538178;32;35313;-84
2023/07/03 12:48:17;;;;;;;13.82;8.82;;;;;;;29.95;32.01;100060.59;5527998;32;33649;-84
2023/07/03 12:51:19;;;;;;;11.85;8.40;;;;;;;29.83;32.22;100053.03;5535777;32;33847;-84
2023/07/03 12:54:22;;;;;;;13.68;8.32;;;;;;;30.03;32.05;100063.13;5532950;32;34156;-84
2023/07/03 12:57:27;;;;;;;15.50;8.77;;;;;;;30.03;32.60;100057.66;5535528;32;34455;-84
2023/07/03 13:00:32;;;;;;;14.98;8.82;;;;;;;30.09;32.09;100056.00;5528327;32;34162;-84
2023/07/03 13:03:40;;;;;;;15.73;9.27;;;;;;;29.89;32.69;100058.72;5535730;32;34660;-84
2023/07/03 13:06:43;;;;;;;11.57;8.77;;;;;;;29.52;33.70;100061.91;5536557;32;33981;-83
2023/07/03 13:09:47;;;;;;;12.52;9.13;;;;;;;29.36;34.32;100058.47;5536394;32;32966;-84
2023/07/03 13:13:17;;;;;;;13.88;9.50;;;;;;;29.74;33.42;100062.53;5545682;32;34029;-84
2023/07/03 13:16:20;;;;;;;14.23;9.80;;;;;;;29.36;34.70;100054.94;5537518;32;33952;-84
2023/07/03 13:19:34;;;;;;;14.95;9.68;;;;;;;29.79;33.94;100056.41;5529938;32;34021;-84
2023/07/03 13:22:37;;;;;;;14.15;10.00;;;;;;;29.73;33.23;100053.47;5532858;32;34709;-84
2023/07/03 13:25:51;;;;;;;14.98;9.68;;;;;;;29.17;35.46;100044.59;5545716;32;33806;-84
2023/07/03 13:28:59;;;;;;;16.37;10.07;;;;;;;29.22;35.55;100046.72;5544050;32;33997;-83
2023/07/03 13:32:13;;;;;;;12.30;9.27;;;;;;;28.98;36.02;100046.25;5530886;32;33406;-88
2023/07/03 13:35:26;;;;;;;16.80;9.88;;;;;;;29.04;36.52;100044.59;5533609;32;33754;-84
2023/07/03 13:38:30;;;;;;;15.52;9.68;;;;;;;29.26;35.79;100042.50;5533973;32;33821;-84
2023/07/03 13:41:34;;;;;;;16.67;9.82;;;;;;;28.87;37.20;100036.75;5534507;32;34705;-84
2023/07/03 13:44:37;;;;;;;14.70;9.55;;;;;;;28.92;36.78;100036.16;5534442;32;34717;-84
2023/07/03 13:47:39;;;;;;;14.85;9.40;;;;;;;28.92;37.81;100038.91;5534478;32;33750;-84
2023/07/03 13:50:43;;;;;;;13.80;9.45;;;;;;;29.09;37.17;100036.63;5534121;32;33536;-84
2023/07/03 13:53:47;;;;;;;13.30;9.23;;;;;;;29.34;38.39;100038.75;5535456;32;34315;-84
2023/07/03 13:56:55;;;;;;;14.82;9.52;;;;;;;29.29;37.42;100038.53;5535371;32;33732;-84
2023/07/03 13:59:57;;;;;;;14.95;9.43;;;;;;;29.10;37.59;100037.47;5533534;32;34455;-84
2023/07/03 14:03:00;;;;;;;12.80;9.52;;;;;;;29.14;37.51;100034.09;5526124;32;34295;-84
2023/07/03 14:06:06;;;;;;;15.25;9.55;;;;;;;28.70;38.54;100049.09;5525010;32;33810;-83
2023/07/03 14:09:09;;;;;;;16.90;9.18;;;;;;;28.49;40.28;100037.22;5525911;32;33497;-83
2023/07/03 14:12:12;;;;;;;13.35;8.93;;;;;;;28.92;38.23;100042.44;5519389;32;34202;-84
2023/07/03 14:15:19;;;;;;;14.45;8.98;;;;;;;28.72;39.19;100042.38;5515855;32;34577;-84
2023/07/03 14:18:22;;;;;;;19.83;9.55;;;;;;;28.44;39.60;100045.19;5518394;32;33745;-84
2023/07/03 14:21:24;;;;;;;13.00;9.38;;;;;;;28.67;38.54;100052.22;5513506;32;35708;-83
2023/07/03 14:24:27;;;;;;;19.83;9.82;;;;;;;28.88;37.60;100038.47;5517712;32;33791;-84
2023/07/03 14:27:34;;;;;;;15.13;9.30;;;;;;;28.57;39.69;100042.53;5541862;32;34341;-84
2023/07/03 14:30:37;;;;;;;13.20;9.43;;;;;;;28.90;40.50;100035.50;5545099;32;33829;-84
2023/07/03 14:33:40;;;;;;;14.48;9.65;;;;;;;28.77;39.01;100036.31;5537012;32;34475;-84
2023/07/03 14:36:43;;;;;;;15.10;9.32;;;;;;;29.31;37.52;100030.97;5553375;32;34636;-84
2023/07/03 14:39:46;;;;;;;14.10;8.90;;;;;;;29.26;37.30;100034.31;5553437;32;33992;-84
2023/07/03 14:42:49;;;;;;;14.02;9.85;;;;;;;28.98;37.93;100040.81;5553737;32;34966;-84
2023/07/03 14:45:51;;;;;;;13.38;9.48;;;;;;;28.52;40.63;100039.56;5554750;32;35517;-84
2023/07/03 14:48:55;;;;;;;17.37;10.00;;;;;;;27.94;41.13;100041.53;5554431;32;33247;-84
2023/07/03 14:51:57;;;;;;;12.50;8.70;;;;;;;27.51;41.08;100038.88;5555930;32;35783;-84
2023/07/03 14:55:00;;;;;;;14.00;9.15;;;;;;;27.38;41.77;100036.87;5555607;32;34110;-84
2023/07/03 14:58:02;;;;;;;16.27;8.95;;;;;;;27.69;41.46;100033.81;5554762;32;33692;-84
2023/07/03 15:01:05;;;;;;;15.10;9.40;;;;;;;28.20;38.91;100037.28;5557157;32;34140;-84
2023/07/03 15:04:11;;;;;;;14.45;9.32;;;;;;;28.09;39.39;100026.94;5549645;32;34133;-83
2023/07/03 15:07:15;;;;;;;13.62;9.10;;;;;;;27.92;39.11;100026.41;5533121;32;33594;-83
2023/07/03 15:10:18;;;;;;;14.98;9.38;;;;;;;28.45;38.65;100025.06;5542800;32;34165;-83
2023/07/03 15:13:21;;;;;;;16.05;9.15;;;;;;;28.59;37.26;100021.34;5554749;32;33676;-84
